createdAt,value
2018-05-27T00:01:46.557Z,21.60
2018-05-27T00:04:14.257Z,21.60
2018-05-27T00:06:42.787Z,21.50
2018-05-27T00:09:10.512Z,21.50
2018-05-27T00:11:38.228Z,21.50
2018-05-27T00:14:06.091Z,21.50
2018-05-27T00:16:33.785Z,21.40
2018-05-27T00:19:02.234Z,21.40
2018-05-27T00:21:30.028Z,21.40
2018-05-27T00:23:58.505Z,21.30
2018-05-27T00:26:26.965Z,21.30
2018-05-27T00:28:54.698Z,21.30
2018-05-27T00:31:23.205Z,21.20
2018-05-27T00:33:50.937Z,21.20
2018-05-27T00:36:18.642Z,21.10
2018-05-27T00:38:46.383Z,21.00
2018-05-27T00:41:14.123Z,21.00
2018-05-27T00:43:41.909Z,21.00
2018-05-27T00:46:09.611Z,20.90
2018-05-27T00:48:38.081Z,20.80
2018-05-27T00:51:06.589Z,20.70
2018-05-27T00:54:00.126Z,20.70
2018-05-27T00:56:28.662Z,20.60
2018-05-27T00:58:56.377Z,20.60
2018-05-27T01:01:24.995Z,20.60
2018-05-27T01:03:52.788Z,20.60
2018-05-27T01:06:20.549Z,20.50
2018-05-27T01:08:48.305Z,20.50
2018-05-27T01:11:16.039Z,20.50
2018-05-27T01:13:43.751Z,20.50
2018-05-27T01:16:11.502Z,20.30
2018-05-27T01:18:39.206Z,20.10
2018-05-27T01:21:07.717Z,19.90
2018-05-27T01:23:35.418Z,19.90
2018-05-27T01:26:03.193Z,19.70
2018-05-27T01:28:30.908Z,19.60
2018-05-27T01:30:58.731Z,19.70
2018-05-27T01:33:27.203Z,19.60
2018-05-27T01:35:55.678Z,19.60
2018-05-27T01:38:23.763Z,19.50
2018-05-27T01:40:52.244Z,19.40
2018-05-27T01:43:20.726Z,19.40
2018-05-27T01:45:49.244Z,19.30
2018-05-27T01:48:16.940Z,19.30
2018-05-27T01:50:44.654Z,19.30
2018-05-27T01:53:12.395Z,19.30
2018-05-27T01:55:40.968Z,19.20
2018-05-27T01:58:09.440Z,19.20
2018-05-27T02:00:37.923Z,19.00
2018-05-27T02:03:06.426Z,19.00
2018-05-27T02:05:34.127Z,19.00
2018-05-27T02:08:01.857Z,19.00
2018-05-27T02:10:29.601Z,19.00
2018-05-27T02:12:58.096Z,18.90
2018-05-27T02:15:25.803Z,18.80
2018-05-27T02:17:53.636Z,18.80
2018-05-27T02:20:21.336Z,18.80
2018-05-27T02:22:49.037Z,18.80
2018-05-27T02:25:17.547Z,18.70
2018-05-27T02:27:45.326Z,18.70
2018-05-27T02:30:13.031Z,18.70
2018-05-27T02:32:41.495Z,18.70
2018-05-27T02:35:09.237Z,18.60
2018-05-27T02:37:36.931Z,18.60
2018-05-27T02:40:05.790Z,18.40
2018-05-27T02:42:33.510Z,18.40
2018-05-27T02:45:01.232Z,18.20
2018-05-27T02:47:29.959Z,18.10
2018-05-27T02:49:57.665Z,18.10
2018-05-27T02:52:25.412Z,18.10
2018-05-27T02:54:53.130Z,18.10
2018-05-27T02:57:21.136Z,18.20
2018-05-27T02:59:48.848Z,18.10
2018-05-27T03:02:17.509Z,18.10
2018-05-27T03:04:45.248Z,18.10
2018-05-27T03:07:13.476Z,18.10
2018-05-27T03:09:41.978Z,18.10
2018-05-27T03:12:09.700Z,18.10
2018-05-27T03:14:37.551Z,18.10
2018-05-27T03:17:05.265Z,18.10
2018-05-27T03:19:32.975Z,18.10
2018-05-27T03:22:00.853Z,18.10
2018-05-27T03:24:28.555Z,18.10
2018-05-27T03:26:56.254Z,18.00
2018-05-27T03:29:24.005Z,18.00
2018-05-27T03:31:51.733Z,18.00
2018-05-27T03:34:20.217Z,18.10
2018-05-27T03:36:48.344Z,18.10
2018-05-27T03:39:16.051Z,18.10
2018-05-27T03:41:44.520Z,18.10
2018-05-27T03:44:13.078Z,18.20
2018-05-27T03:46:40.764Z,18.10
2018-05-27T03:49:09.264Z,18.20
2018-05-27T03:51:37.115Z,18.10
2018-05-27T03:54:05.597Z,18.20
2018-05-27T03:56:34.068Z,18.10
2018-05-27T03:59:02.673Z,18.10
2018-05-27T04:01:30.376Z,18.10
2018-05-27T04:04:09.939Z,18.20
2018-05-27T04:06:49.558Z,18.20
2018-05-27T04:09:17.287Z,18.30
2018-05-27T04:11:44.980Z,18.40
2018-05-27T04:14:13.655Z,18.70
2018-05-27T04:16:41.431Z,19.10
2018-05-27T04:19:09.221Z,19.70
2018-05-27T04:21:37.688Z,21.00
2018-05-27T04:24:05.426Z,20.90
2018-05-27T04:26:33.124Z,21.50
2018-05-27T04:29:01.681Z,22.50
2018-05-27T04:31:29.413Z,22.50
2018-05-27T04:33:57.141Z,22.80
2018-05-27T04:36:25.603Z,23.40
2018-05-27T04:38:53.344Z,23.40
2018-05-27T04:41:21.043Z,23.70
2018-05-27T04:43:49.568Z,24.00
2018-05-27T04:46:17.268Z,24.00
2018-05-27T04:48:44.975Z,24.00
2018-05-27T04:51:12.820Z,24.10
2018-05-27T04:53:41.361Z,24.00
2018-05-27T04:56:10.099Z,24.30
2018-05-27T04:58:37.836Z,24.30
2018-05-27T05:01:06.380Z,24.70
2018-05-27T05:03:34.125Z,24.70
2018-05-27T05:06:01.845Z,25.00
2018-05-27T05:08:30.457Z,25.70
2018-05-27T05:10:58.603Z,25.60
2018-05-27T05:13:27.104Z,26.60
2018-05-27T05:15:54.805Z,26.60
2018-05-27T05:18:22.554Z,27.00
2018-05-27T05:20:50.327Z,27.20
2018-05-27T05:23:18.029Z,27.60
2018-05-27T05:25:47.732Z,27.80
2018-05-27T05:28:15.496Z,27.80
2018-05-27T05:30:44.738Z,27.60
2018-05-27T05:33:12.485Z,27.50
2018-05-27T05:35:43.733Z,27.10
2018-05-27T05:38:12.427Z,26.90
2018-05-27T05:40:40.841Z,26.80
2018-05-27T05:43:10.248Z,26.40
2018-05-27T05:45:38.040Z,26.30
2018-05-27T05:48:07.081Z,25.90
2018-05-27T05:50:45.215Z,25.90
2018-05-27T05:53:14.099Z,25.90
2018-05-27T05:55:42.054Z,26.20
2018-05-27T05:58:09.889Z,25.90
2018-05-27T06:00:38.150Z,25.70
2018-05-27T06:03:07.858Z,25.60
2018-05-27T06:05:36.384Z,25.60
2018-05-27T06:08:04.241Z,25.70
2018-05-27T06:10:33.113Z,25.90
2018-05-27T06:13:03.343Z,26.20
2018-05-27T06:15:32.120Z,26.10
2018-05-27T06:18:00.985Z,26.60
2018-05-27T06:20:28.827Z,26.60
2018-05-27T06:22:58.730Z,26.80
2018-05-27T06:25:26.566Z,26.70
2018-05-27T06:27:54.311Z,26.90
2018-05-27T06:30:22.058Z,27.00
2018-05-27T06:32:50.539Z,26.70
2018-05-27T06:35:18.360Z,26.70
2018-05-27T06:37:46.292Z,27.00
2018-05-27T06:40:14.039Z,27.50
2018-05-27T06:42:42.110Z,27.70
2018-05-27T06:45:10.756Z,28.10
2018-05-27T06:47:38.756Z,28.00
2018-05-27T06:50:08.314Z,27.10
2018-05-27T06:52:36.115Z,27.10
2018-05-27T06:55:04.591Z,26.20
2018-05-27T06:57:33.502Z,26.60
2018-05-27T07:00:01.196Z,26.50
2018-05-27T07:02:28.890Z,26.70
2018-05-27T07:04:56.678Z,26.80
2018-05-27T07:07:24.492Z,27.30
2018-05-27T07:09:52.371Z,27.70
2018-05-27T07:12:21.151Z,28.10
2018-05-27T07:14:49.749Z,28.50
2018-05-27T07:17:17.452Z,28.50
2018-05-27T07:19:45.177Z,28.30
2018-05-27T07:22:13.375Z,28.20
2018-05-27T07:24:41.855Z,28.40
2018-05-27T07:27:10.299Z,27.60
2018-05-27T07:29:38.402Z,27.60
2018-05-27T07:32:06.864Z,26.90
2018-05-27T07:34:34.620Z,26.90
2018-05-27T07:37:02.459Z,27.10
2018-05-27T07:39:30.152Z,27.50
2018-05-27T07:41:57.870Z,27.70
2018-05-27T07:44:25.626Z,27.60
2018-05-27T07:46:53.329Z,27.30
2018-05-27T07:49:21.035Z,27.10
2018-05-27T07:51:49.537Z,27.30
2018-05-27T07:54:17.287Z,27.40
2018-05-27T07:56:44.990Z,27.80
2018-05-27T07:59:12.694Z,27.90
2018-05-27T08:01:41.195Z,28.50
2018-05-27T08:04:08.884Z,28.40
2018-05-27T08:06:36.716Z,27.60
2018-05-27T08:09:05.959Z,27.60
2018-05-27T08:11:33.658Z,27.60
2018-05-27T08:14:01.389Z,27.70
2018-05-27T08:16:29.091Z,27.60
2018-05-27T08:18:56.913Z,27.30
2018-05-27T08:21:24.627Z,27.20
2018-05-27T08:23:53.106Z,27.50
2018-05-27T08:26:21.619Z,27.70
2018-05-27T08:28:49.315Z,27.70
2018-05-27T08:31:17.052Z,27.80
2018-05-27T08:33:44.761Z,28.00
2018-05-27T08:36:12.528Z,28.00
2018-05-27T08:38:40.236Z,27.70
2018-05-27T08:41:07.930Z,27.60
2018-05-27T08:43:35.793Z,27.60
2018-05-27T08:46:03.499Z,27.60
2018-05-27T08:48:31.966Z,27.60
2018-05-27T08:50:59.693Z,27.60
2018-05-27T08:53:27.557Z,27.60
2018-05-27T08:55:55.228Z,27.50
2018-05-27T08:58:22.999Z,27.40
2018-05-27T09:00:50.695Z,27.30
2018-05-27T09:03:18.402Z,26.70
2018-05-27T09:05:46.144Z,26.90
2018-05-27T09:08:14.641Z,27.70
2018-05-27T09:10:42.794Z,27.70
2018-05-27T09:13:10.545Z,27.80
2018-05-27T09:15:38.239Z,27.80
2018-05-27T09:18:06.047Z,27.90
2018-05-27T09:20:33.745Z,28.20
2018-05-27T09:23:02.213Z,28.10
2018-05-27T09:25:29.960Z,28.10
2018-05-27T09:27:57.911Z,28.10
2018-05-27T09:30:25.612Z,28.10
2018-05-27T09:32:53.460Z,28.30
2018-05-27T09:35:21.938Z,28.10
2018-05-27T09:37:49.641Z,28.10
2018-05-27T09:40:19.991Z,28.20
2018-05-27T09:42:49.408Z,28.20
2018-05-27T09:45:17.204Z,28.20
2018-05-27T09:47:45.316Z,28.00
2018-05-27T09:50:13.778Z,28.10
2018-05-27T09:52:42.304Z,28.20
2018-05-27T09:55:10.029Z,28.20
2018-05-27T09:57:38.565Z,28.50
2018-05-27T10:00:06.266Z,28.50
2018-05-27T10:02:33.963Z,28.70
2018-05-27T10:05:01.732Z,28.80
2018-05-27T10:07:29.438Z,29.20
2018-05-27T10:09:57.144Z,29.20
2018-05-27T10:12:25.655Z,29.20
2018-05-27T10:14:53.362Z,29.20
2018-05-27T10:17:21.105Z,29.40
2018-05-27T10:19:48.845Z,29.50
2018-05-27T10:22:16.588Z,29.10
2018-05-27T10:24:44.341Z,29.10
2018-05-27T10:27:12.878Z,29.00
2018-05-27T10:29:40.568Z,29.00
2018-05-27T10:32:09.049Z,29.40
2018-05-27T10:34:37.600Z,29.30
2018-05-27T10:37:05.340Z,29.30
2018-05-27T10:39:33.047Z,29.10
2018-05-27T10:42:00.894Z,29.10
2018-05-27T10:44:28.613Z,28.90
2018-05-27T10:46:56.320Z,28.70
2018-05-27T10:49:24.062Z,29.00
2018-05-27T10:51:51.783Z,28.90
2018-05-27T10:54:20.280Z,28.60
2018-05-27T10:56:47.971Z,28.60
2018-05-27T10:59:15.830Z,28.60
2018-05-27T11:01:43.532Z,28.90
2018-05-27T11:04:11.229Z,29.10
2018-05-27T11:06:39.740Z,29.80
2018-05-27T11:09:07.556Z,29.70
2018-05-27T11:11:35.400Z,30.00
2018-05-27T11:14:03.128Z,30.30
2018-05-27T11:16:30.829Z,30.20
2018-05-27T11:18:58.581Z,30.20
2018-05-27T11:21:26.292Z,30.30
2018-05-27T11:23:54.021Z,30.30
2018-05-27T11:26:21.739Z,29.80
2018-05-27T11:28:49.474Z,29.60
2018-05-27T11:31:17.951Z,29.10
2018-05-27T11:33:46.941Z,29.30
2018-05-27T11:36:15.494Z,29.60
2018-05-27T11:38:43.207Z,29.60
2018-05-27T11:41:11.083Z,30.00
2018-05-27T11:43:38.831Z,29.80
2018-05-27T11:46:06.542Z,30.10
2018-05-27T11:48:34.380Z,30.40
2018-05-27T11:51:02.109Z,30.60
2018-05-27T11:53:29.848Z,30.40
2018-05-27T11:55:57.583Z,30.10
2018-05-27T11:58:25.282Z,30.10
2018-05-27T12:00:53.129Z,30.60
2018-05-27T12:03:20.842Z,30.90
2018-05-27T12:05:48.538Z,31.30
2018-05-27T12:08:16.273Z,31.40
2018-05-27T12:10:43.979Z,31.40
2018-05-27T12:13:11.724Z,31.60
2018-05-27T12:15:39.422Z,31.50
2018-05-27T12:18:07.199Z,30.90
2018-05-27T12:20:35.684Z,30.80
2018-05-27T12:23:04.158Z,30.10
2018-05-27T12:25:32.682Z,29.80
2018-05-27T12:28:00.404Z,29.80
2018-05-27T12:30:29.017Z,29.80
2018-05-27T12:32:56.739Z,29.80
2018-05-27T12:35:25.231Z,30.10
2018-05-27T12:37:53.764Z,30.30
2018-05-27T12:40:21.479Z,30.20
2018-05-27T12:42:49.245Z,30.70
2018-05-27T12:45:17.105Z,31.00
2018-05-27T12:47:45.581Z,31.20
2018-05-27T12:50:13.298Z,31.20
2018-05-27T12:52:41.048Z,31.20
2018-05-27T12:55:09.173Z,31.60
2018-05-27T12:57:37.666Z,31.40
2018-05-27T13:00:06.191Z,30.90
2018-05-27T13:02:33.984Z,30.90
2018-05-27T13:05:01.700Z,30.80
2018-05-27T13:07:29.430Z,30.70
2018-05-27T13:09:57.935Z,31.50
2018-05-27T13:12:25.787Z,31.50
2018-05-27T13:14:53.494Z,31.80
2018-05-27T13:17:21.212Z,31.80
2018-05-27T13:19:48.993Z,31.30
2018-05-27T13:22:16.691Z,31.20
2018-05-27T13:24:44.397Z,31.20
2018-05-27T13:27:12.905Z,31.00
2018-05-27T13:29:40.627Z,31.00
2018-05-27T13:32:09.151Z,30.80
2018-05-27T13:34:36.855Z,30.80
2018-05-27T13:37:05.045Z,30.40
2018-05-27T13:39:33.515Z,30.20
2018-05-27T13:42:01.990Z,30.20
2018-05-27T13:44:29.728Z,30.10
2018-05-27T13:46:57.475Z,30.20
2018-05-27T13:49:25.319Z,30.10
2018-05-27T13:51:53.022Z,30.20
2018-05-27T13:54:20.722Z,30.20
2018-05-27T13:56:49.225Z,29.90
2018-05-27T13:59:16.963Z,29.90
2018-05-27T14:01:45.440Z,30.00
2018-05-27T14:04:13.950Z,29.90
2018-05-27T14:06:41.802Z,29.90
2018-05-27T14:09:09.616Z,29.90
2018-05-27T14:11:37.324Z,29.60
2018-05-27T14:14:05.119Z,29.60
2018-05-27T14:16:32.859Z,29.70
2018-05-27T14:19:00.569Z,29.80
2018-05-27T14:21:28.350Z,29.90
2018-05-27T14:23:56.077Z,29.90
2018-05-27T14:26:23.797Z,30.00
2018-05-27T14:28:52.298Z,30.00
2018-05-27T14:31:20.043Z,30.00
2018-05-27T14:33:47.745Z,30.10
2018-05-27T14:36:15.483Z,29.80
2018-05-27T14:38:43.191Z,29.80
2018-05-27T14:41:10.943Z,29.60
2018-05-27T14:43:38.663Z,29.60
2018-05-27T14:46:06.530Z,29.40
2018-05-27T14:48:34.235Z,29.20
2018-05-27T14:51:01.938Z,29.10
2018-05-27T14:53:30.553Z,28.70
2018-05-27T14:55:58.248Z,28.70
2018-05-27T14:58:26.710Z,28.60
2018-05-27T15:00:54.924Z,28.50
2018-05-27T15:03:23.471Z,28.30
2018-05-27T15:05:51.188Z,28.30
2018-05-27T15:08:18.890Z,27.80
2018-05-27T15:10:46.642Z,27.00
2018-05-27T15:13:14.352Z,26.30
2018-05-27T15:15:42.872Z,25.40
2018-05-27T15:18:10.576Z,25.40
2018-05-27T15:20:38.283Z,25.40
2018-05-27T15:23:06.039Z,25.20
2018-05-27T15:25:34.523Z,24.90
2018-05-27T15:28:02.268Z,24.90
2018-05-27T15:30:30.737Z,24.50
2018-05-27T15:32:58.479Z,24.50
2018-05-27T15:35:26.207Z,24.20
2018-05-27T15:37:53.956Z,23.80
2018-05-27T15:40:21.653Z,23.40
2018-05-27T15:42:49.419Z,23.00
2018-05-27T15:45:17.103Z,22.80
2018-05-27T15:47:44.815Z,22.40
2018-05-27T15:50:12.661Z,22.30
2018-05-27T15:52:40.379Z,22.10
2018-05-27T15:55:08.094Z,22.10
2018-05-27T15:57:35.844Z,22.10
2018-05-27T16:00:04.411Z,22.50
2018-05-27T16:02:32.932Z,22.70
2018-05-27T16:05:00.678Z,22.60
2018-05-27T16:07:29.149Z,22.60
2018-05-27T16:09:57.681Z,22.80
2018-05-27T16:12:25.422Z,22.80
2018-05-27T16:14:53.167Z,22.90
2018-05-27T16:17:23.444Z,23.00
2018-05-27T16:19:52.173Z,23.20
2018-05-27T16:22:20.747Z,23.20
2018-05-27T16:24:49.276Z,22.80
2018-05-27T16:27:18.731Z,22.80
2018-05-27T16:29:49.804Z,22.80
2018-05-27T16:32:17.852Z,22.80
2018-05-27T16:34:46.964Z,23.00
2018-05-27T16:37:15.375Z,23.20
2018-05-27T16:39:44.399Z,23.50
2018-05-27T16:42:16.641Z,23.70
2018-05-27T16:44:44.510Z,23.70
2018-05-27T16:47:12.627Z,23.80
2018-05-27T16:49:40.442Z,23.80
2018-05-27T16:52:09.929Z,23.90
2018-05-27T16:54:41.683Z,24.00
2018-05-27T16:57:09.511Z,24.10
2018-05-27T16:59:48.112Z,23.90
2018-05-27T17:02:18.861Z,23.90
2018-05-27T17:04:47.092Z,23.80
2018-05-27T17:07:15.930Z,23.80
2018-05-27T17:09:46.590Z,23.80
2018-05-27T17:12:19.879Z,23.90
2018-05-27T17:14:51.341Z,23.90
2018-05-27T17:17:20.291Z,24.00
2018-05-27T17:19:48.964Z,24.10
2018-05-27T17:22:17.964Z,24.00
2018-05-27T17:24:51.426Z,23.90
2018-05-27T17:27:24.228Z,24.00
2018-05-27T17:29:53.417Z,24.10
2018-05-27T17:32:21.275Z,24.20
2018-05-27T17:34:48.987Z,24.20
2018-05-27T17:37:17.138Z,24.30
2018-05-27T17:39:45.612Z,24.40
2018-05-27T17:42:14.094Z,24.40
2018-05-27T17:44:42.724Z,24.40
2018-05-27T17:47:10.452Z,24.40
2018-05-27T17:49:38.207Z,24.30
2018-05-27T17:52:06.717Z,23.80
2018-05-27T17:54:34.599Z,23.80
2018-05-27T17:57:02.299Z,23.60
2018-05-27T17:59:30.004Z,23.50
2018-05-27T18:01:57.749Z,23.50
2018-05-27T18:04:25.477Z,23.40
2018-05-27T18:06:53.676Z,23.40
2018-05-27T18:09:21.420Z,23.20
2018-05-27T18:11:49.111Z,23.10
2018-05-27T18:14:17.269Z,23.00
2018-05-27T18:16:45.761Z,23.00
2018-05-27T18:19:14.343Z,23.00
2018-05-27T18:21:43.238Z,23.00
2018-05-27T18:24:10.949Z,23.00
2018-05-27T18:26:38.909Z,22.90
2018-05-27T18:29:11.137Z,22.80
2018-05-27T18:31:43.059Z,22.70
2018-05-27T18:34:12.860Z,22.70
2018-05-27T18:36:42.551Z,22.60
2018-05-27T18:39:10.336Z,22.60
2018-05-27T18:41:38.104Z,22.60
2018-05-27T18:44:05.850Z,22.50
2018-05-27T18:46:33.551Z,22.50
2018-05-27T18:49:02.110Z,22.50
2018-05-27T18:51:29.867Z,22.40
2018-05-27T18:53:57.604Z,22.50
2018-05-27T18:56:25.327Z,22.50
2018-05-27T18:58:54.203Z,22.40
2018-05-27T19:01:22.675Z,22.40
2018-05-27T19:03:50.413Z,22.40
2018-05-27T19:06:19.434Z,22.40
2018-05-27T19:08:47.948Z,22.20
2018-05-27T19:11:15.651Z,22.20
2018-05-27T19:13:44.831Z,22.20
2018-05-27T19:16:33.053Z,22.10
2018-05-27T19:19:12.826Z,22.10
2018-05-27T19:24:50.324Z,21.80
2018-05-27T19:30:34.530Z,21.70
2018-05-27T19:36:11.414Z,21.60
2018-05-27T19:38:56.873Z,21.60
2018-05-27T19:41:26.803Z,21.60
2018-05-27T19:43:55.080Z,21.50
2018-05-27T19:46:23.495Z,21.50
2018-05-27T19:48:51.423Z,21.40
2018-05-27T19:51:19.415Z,21.40
2018-05-27T19:53:47.503Z,21.30
2018-05-27T19:56:16.925Z,21.00
2018-05-27T19:58:46.881Z,20.90
2018-05-27T20:01:16.665Z,20.90
2018-05-27T20:03:45.690Z,20.90
2018-05-27T20:06:14.990Z,20.90
2018-05-27T20:08:48.936Z,20.80
2018-05-27T20:11:16.900Z,21.00
2018-05-27T20:13:45.372Z,20.90
2018-05-27T20:16:14.029Z,21.00
2018-05-27T20:18:41.871Z,20.90
2018-05-27T20:21:10.769Z,21.00
2018-05-27T20:23:39.590Z,20.90
2018-05-27T20:26:07.361Z,20.90
2018-05-27T20:28:35.200Z,20.90
2018-05-27T20:31:02.959Z,20.90
2018-05-27T20:33:30.829Z,20.90
2018-05-27T20:35:59.090Z,20.90
2018-05-27T20:38:26.832Z,20.90
2018-05-27T20:40:54.672Z,20.90
2018-05-27T20:43:22.398Z,20.90
2018-05-27T20:45:50.134Z,20.80
2018-05-27T20:48:17.932Z,20.80
2018-05-27T20:50:45.678Z,20.80
2018-05-27T20:53:13.506Z,20.80
2018-05-27T20:55:41.269Z,20.80
2018-05-27T20:58:11.524Z,20.80
2018-05-27T21:00:40.974Z,20.80
2018-05-27T21:03:08.908Z,20.70
2018-05-27T21:05:38.062Z,20.70
2018-05-27T21:08:05.793Z,20.70
2018-05-27T21:10:36.396Z,20.70
2018-05-27T21:13:04.710Z,20.70
2018-05-27T21:15:33.195Z,20.60
2018-05-27T21:18:01.578Z,20.50
2018-05-27T21:20:29.953Z,20.50
2018-05-27T21:22:58.848Z,20.50
2018-05-27T21:25:26.695Z,20.50
2018-05-27T21:27:56.097Z,20.40
2018-05-27T21:30:25.917Z,20.50
2018-05-27T21:32:54.706Z,20.50
2018-05-27T21:35:23.312Z,20.40
2018-05-27T21:37:51.251Z,20.40
2018-05-27T21:40:19.768Z,20.20
2018-05-27T21:42:47.523Z,20.20
2018-05-27T21:45:15.292Z,20.10
2018-05-27T21:47:43.394Z,19.90
2018-05-27T21:50:11.102Z,19.80
2018-05-27T21:52:38.848Z,19.80
2018-05-27T21:55:07.340Z,19.80
2018-05-27T21:57:35.425Z,19.70
2018-05-27T22:00:03.316Z,19.70
2018-05-27T22:02:31.109Z,19.70
2018-05-27T22:04:58.861Z,19.60
2018-05-27T22:07:26.578Z,19.70
2018-05-27T22:09:54.455Z,19.70
2018-05-27T22:12:22.190Z,19.70
2018-05-27T22:14:50.713Z,19.60
2018-05-27T22:17:18.613Z,19.60
2018-05-27T22:19:46.505Z,19.60
2018-05-27T22:22:15.009Z,19.00
2018-05-27T22:24:42.740Z,19.00
2018-05-27T22:27:11.743Z,18.70
2018-05-27T22:29:40.239Z,18.50
2018-05-27T22:32:07.956Z,18.40
2018-05-27T22:34:35.716Z,18.40
2018-05-27T22:37:03.431Z,18.40
2018-05-27T22:39:31.328Z,18.50
2018-05-27T22:41:59.055Z,18.60
2018-05-27T22:44:26.763Z,18.60
2018-05-27T22:46:54.615Z,18.60
2018-05-27T22:49:22.324Z,18.50
2018-05-27T22:51:50.050Z,18.40
2018-05-27T22:54:18.219Z,18.40
2018-05-27T22:56:45.931Z,18.30
2018-05-27T22:59:13.640Z,18.30
2018-05-27T23:01:41.741Z,18.40
2018-05-27T23:04:10.276Z,18.30
2018-05-27T23:06:38.000Z,18.30
2018-05-27T23:09:06.501Z,18.20
2018-05-27T23:11:34.274Z,18.20
2018-05-27T23:14:02.001Z,18.20
2018-05-27T23:16:30.541Z,18.10
2018-05-27T23:18:58.260Z,18.10
2018-05-27T23:21:25.967Z,18.20
2018-05-27T23:23:53.725Z,18.20
2018-05-27T23:26:21.437Z,18.30
2018-05-27T23:28:49.405Z,18.30
2018-05-27T23:31:17.899Z,18.10
2018-05-27T23:33:45.620Z,18.10
2018-05-27T23:36:13.381Z,18.10
2018-05-27T23:38:41.476Z,18.20
2018-05-27T23:41:09.941Z,18.30
2018-05-27T23:43:37.665Z,18.30
2018-05-27T23:46:05.408Z,18.30
2018-05-27T23:48:33.162Z,18.30
2018-05-27T23:51:01.028Z,18.40
2018-05-27T23:53:28.749Z,18.40
2018-05-27T23:55:56.503Z,18.40
2018-05-27T23:58:24.248Z,18.40
